createdAt,value
2023-03-16T00:01:08.005Z,6.07
2023-03-16T00:03:37.427Z,7.05
2023-03-16T00:06:08.198Z,5.72
2023-03-16T00:08:37.237Z,5.85
2023-03-16T00:11:06.724Z,5.63
2023-03-16T00:13:35.538Z,6.68
2023-03-16T00:16:05.379Z,6.93
2023-03-16T00:18:39.208Z,5.75
2023-03-16T00:21:10.194Z,6.70
2023-03-16T00:23:39.321Z,7.18
2023-03-16T00:26:10.075Z,6.50
2023-03-16T00:28:38.949Z,6.25
2023-03-16T00:31:12.007Z,7.90
2023-03-16T00:36:15.737Z,6.40
2023-03-16T00:38:49.318Z,6.72
2023-03-16T00:41:18.325Z,6.70
2023-03-16T00:43:49.103Z,6.25
2023-03-16T00:46:19.248Z,6.05
2023-03-16T00:48:51.654Z,8.57
2023-03-16T00:51:23.081Z,7.05
2023-03-16T00:53:53.304Z,6.97
2023-03-16T00:56:24.558Z,6.70
2023-03-16T00:58:57.764Z,6.28
2023-03-16T01:01:27.542Z,7.13
2023-03-16T01:03:56.675Z,6.38
2023-03-16T01:06:27.757Z,6.50
2023-03-16T01:08:56.992Z,6.15
2023-03-16T01:11:26.142Z,6.47
2023-03-16T01:13:57.072Z,6.15
2023-03-16T01:16:29.496Z,6.47
2023-03-16T01:18:58.672Z,7.10
2023-03-16T01:21:30.171Z,9.30
2023-03-16T01:23:59.217Z,5.93
2023-03-16T01:26:28.232Z,6.72
2023-03-16T01:28:57.206Z,7.03
2023-03-16T01:31:26.318Z,7.03
2023-03-16T01:33:55.341Z,7.07
2023-03-16T01:36:29.484Z,6.45
2023-03-16T01:39:06.951Z,7.22
2023-03-16T01:41:43.441Z,6.85
2023-03-16T01:44:16.463Z,6.20
2023-03-16T01:46:45.823Z,7.38
2023-03-16T01:49:20.466Z,8.35
2023-03-16T01:51:56.369Z,6.20
2023-03-16T01:54:29.808Z,7.28
2023-03-16T01:57:04.792Z,6.50
2023-03-16T01:59:39.479Z,7.20
2023-03-16T02:02:10.345Z,6.85
2023-03-16T02:04:52.152Z,7.00
2023-03-16T02:07:29.740Z,7.13
2023-03-16T02:10:02.619Z,7.43
2023-03-16T02:12:32.272Z,7.18
2023-03-16T02:15:03.422Z,7.18
2023-03-16T02:17:34.058Z,6.45
2023-03-16T02:20:24.034Z,6.10
2023-03-16T02:22:55.720Z,7.90
2023-03-16T02:25:27.710Z,6.57
2023-03-16T02:28:05.581Z,7.95
2023-03-16T02:30:37.994Z,7.43
2023-03-16T02:33:11.065Z,6.72
2023-03-16T02:35:40.098Z,6.85
2023-03-16T02:38:09.990Z,7.15
2023-03-16T02:40:53.976Z,7.32
2023-03-16T02:43:29.910Z,6.82
2023-03-16T02:46:29.519Z,7.78
2023-03-16T02:49:04.321Z,7.15
2023-03-16T02:51:33.485Z,6.72
2023-03-16T02:54:02.622Z,7.03
2023-03-16T02:56:34.654Z,6.70
2023-03-16T02:59:06.016Z,7.15
2023-03-16T03:01:36.747Z,8.25
2023-03-16T03:04:06.968Z,7.07
2023-03-16T03:06:36.363Z,7.72
2023-03-16T03:09:06.812Z,8.02
2023-03-16T03:11:36.087Z,7.35
2023-03-16T03:14:05.489Z,7.13
2023-03-16T03:16:40.716Z,7.13
2023-03-16T03:19:12.157Z,7.43
2023-03-16T03:21:42.530Z,7.00
2023-03-16T03:24:11.489Z,6.50
2023-03-16T03:26:40.516Z,6.03
2023-03-16T03:29:15.689Z,6.20
2023-03-16T03:31:46.004Z,6.63
2023-03-16T03:36:47.585Z,6.65
2023-03-16T03:39:17.076Z,5.68
2023-03-16T03:41:46.628Z,7.43
2023-03-16T03:44:16.049Z,6.18
2023-03-16T03:46:46.866Z,8.18
2023-03-16T03:49:16.558Z,6.22
2023-03-16T03:51:47.166Z,5.90
2023-03-16T03:54:20.228Z,4.78
2023-03-16T03:56:54.918Z,5.57
2023-03-16T03:59:24.854Z,6.00
2023-03-16T04:02:18.408Z,6.38
2023-03-16T04:04:52.499Z,6.55
2023-03-16T04:07:21.843Z,5.60
2023-03-16T04:09:53.636Z,6.20
2023-03-16T04:12:28.787Z,6.28
2023-03-16T04:14:58.264Z,5.45
2023-03-16T04:17:31.729Z,5.07
2023-03-16T04:20:02.204Z,5.95
2023-03-16T04:22:32.025Z,6.32
2023-03-16T04:25:03.151Z,5.72
2023-03-16T04:27:36.569Z,6.28
2023-03-16T04:30:08.955Z,6.20
2023-03-16T04:32:39.897Z,5.57
2023-03-16T04:35:15.781Z,6.07
2023-03-16T04:37:51.616Z,5.53
2023-03-16T04:40:23.577Z,6.18
2023-03-16T04:43:02.810Z,5.90
2023-03-16T04:45:33.488Z,4.97
2023-03-16T04:48:04.073Z,4.70
2023-03-16T04:50:33.104Z,5.20
2023-03-16T04:53:02.306Z,5.25
2023-03-16T04:55:31.975Z,4.97
2023-03-16T04:58:01.720Z,5.68
2023-03-16T05:00:35.250Z,5.75
2023-03-16T05:03:25.732Z,5.13
2023-03-16T05:05:55.570Z,5.05
2023-03-16T05:08:25.904Z,5.03
2023-03-16T05:10:58.632Z,5.55
2023-03-16T05:13:29.879Z,5.38
2023-03-16T05:16:02.206Z,4.88
2023-03-16T05:21:05.565Z,5.40
2023-03-16T05:23:46.534Z,5.28
2023-03-16T05:26:15.791Z,4.88
2023-03-16T05:28:44.529Z,4.70
2023-03-16T05:31:16.533Z,5.07
2023-03-16T05:33:51.725Z,5.03
2023-03-16T05:36:22.171Z,5.05
2023-03-16T05:38:55.031Z,3.72
2023-03-16T05:41:44.536Z,4.97
2023-03-16T05:44:39.166Z,3.80
2023-03-16T05:47:21.997Z,5.35
2023-03-16T05:49:57.772Z,4.22
2023-03-16T05:52:33.921Z,3.28
2023-03-16T05:55:09.755Z,3.75
2023-03-16T05:57:39.233Z,3.80
2023-03-16T06:00:14.545Z,3.90
2023-03-16T06:02:54.777Z,4.30
2023-03-16T06:05:30.422Z,3.85
2023-03-16T06:07:59.588Z,3.33
2023-03-16T06:10:29.692Z,4.15
2023-03-16T06:12:59.967Z,3.45
2023-03-16T06:15:30.578Z,3.90
2023-03-16T06:20:32.457Z,3.78
2023-03-16T06:23:01.644Z,3.58
2023-03-16T06:25:33.720Z,4.00
2023-03-16T06:28:03.519Z,4.25
2023-03-16T06:30:32.440Z,3.72
2023-03-16T06:33:02.246Z,3.90
2023-03-16T06:35:34.867Z,4.10
2023-03-16T06:38:14.451Z,3.85
2023-03-16T06:40:58.680Z,4.20
2023-03-16T06:43:27.484Z,4.35
2023-03-16T06:45:56.805Z,3.78
2023-03-16T06:48:26.044Z,5.80
2023-03-16T06:50:56.428Z,3.63
2023-03-16T06:53:28.885Z,4.68
2023-03-16T06:56:01.421Z,4.30
2023-03-16T06:58:32.940Z,4.45
2023-03-16T07:01:04.635Z,3.70
2023-03-16T07:03:33.714Z,3.80
2023-03-16T07:06:10.361Z,3.25
2023-03-16T07:08:39.128Z,3.58
2023-03-16T07:11:08.003Z,4.18
2023-03-16T07:13:37.832Z,5.53
2023-03-16T07:16:08.144Z,4.55
2023-03-16T07:18:40.076Z,4.03
2023-03-16T07:21:13.220Z,5.85
2023-03-16T07:23:45.108Z,3.67
2023-03-16T07:26:16.087Z,3.72
2023-03-16T07:28:52.722Z,3.80
2023-03-16T07:31:22.154Z,3.47
2023-03-16T07:33:51.004Z,3.75
2023-03-16T07:36:29.939Z,3.05
2023-03-16T07:39:01.873Z,5.18
2023-03-16T07:41:32.658Z,3.92
2023-03-16T07:44:15.886Z,2.53
2023-03-16T07:46:48.991Z,4.45
2023-03-16T07:49:18.330Z,3.47
2023-03-16T07:51:51.544Z,3.55
2023-03-16T07:54:24.387Z,3.17
2023-03-16T07:56:53.325Z,3.75
2023-03-16T07:59:54.111Z,2.80
2023-03-16T08:02:23.125Z,2.95
2023-03-16T08:04:52.773Z,2.88
2023-03-16T08:07:23.078Z,3.42
2023-03-16T08:10:06.957Z,3.22
2023-03-16T08:12:46.313Z,3.65
2023-03-16T08:15:15.716Z,3.05
2023-03-16T08:17:46.679Z,3.03
2023-03-16T08:20:21.619Z,3.20
2023-03-16T08:22:51.743Z,3.28
2023-03-16T08:25:26.716Z,3.88
2023-03-16T08:28:10.762Z,2.63
2023-03-16T08:30:48.203Z,4.07
2023-03-16T08:33:39.963Z,2.75
2023-03-16T08:36:15.504Z,4.40
2023-03-16T08:39:05.565Z,4.28
2023-03-16T08:41:38.095Z,3.70
2023-03-16T08:44:11.576Z,3.28
2023-03-16T08:46:40.929Z,3.40
2023-03-16T08:49:09.980Z,3.33
2023-03-16T08:51:39.345Z,3.83
2023-03-16T08:54:09.501Z,3.47
2023-03-16T08:56:38.346Z,3.13
2023-03-16T08:59:10.484Z,4.05
2023-03-16T09:01:45.926Z,3.25
2023-03-16T09:04:14.944Z,3.75
2023-03-16T09:06:55.771Z,3.28
2023-03-16T09:09:30.431Z,2.85
2023-03-16T09:11:59.609Z,3.13
2023-03-16T09:14:29.166Z,3.42
2023-03-16T09:16:57.908Z,2.60
2023-03-16T09:19:28.028Z,4.03
2023-03-16T09:21:59.803Z,3.13
2023-03-16T09:24:29.926Z,3.53
2023-03-16T09:26:58.787Z,4.22
2023-03-16T09:29:29.665Z,4.88
2023-03-16T09:31:58.596Z,3.00
2023-03-16T09:34:27.767Z,3.83
2023-03-16T09:36:57.348Z,2.83
2023-03-16T09:39:26.299Z,2.88
2023-03-16T09:42:05.722Z,4.25
2023-03-16T09:44:44.459Z,2.60
2023-03-16T09:47:16.714Z,2.88
2023-03-16T09:49:48.747Z,2.60
2023-03-16T09:52:28.109Z,2.88
2023-03-16T09:55:03.394Z,3.33
2023-03-16T09:57:36.052Z,2.60
2023-03-16T10:00:17.643Z,2.50
2023-03-16T10:05:26.132Z,2.72
2023-03-16T10:08:06.125Z,2.47
2023-03-16T10:10:51.743Z,2.97
2023-03-16T10:13:31.562Z,2.72
2023-03-16T10:16:08.247Z,2.78
2023-03-16T10:18:42.960Z,2.50
2023-03-16T10:21:16.990Z,2.95
2023-03-16T10:23:46.781Z,2.75
2023-03-16T10:26:24.111Z,2.63
2023-03-16T10:28:55.021Z,2.20
2023-03-16T10:31:25.202Z,2.72
2023-03-16T10:33:59.217Z,2.78
2023-03-16T10:36:34.725Z,2.42
2023-03-16T10:39:06.173Z,2.40
2023-03-16T10:41:37.836Z,2.03
2023-03-16T10:44:14.915Z,2.13
2023-03-16T10:46:48.384Z,2.03
2023-03-16T10:49:23.494Z,2.40
2023-03-16T10:51:54.242Z,2.38
2023-03-16T10:54:31.824Z,2.25
2023-03-16T10:57:01.200Z,1.95
2023-03-16T10:59:34.486Z,2.28
2023-03-16T11:04:33.884Z,2.53
2023-03-16T11:07:02.763Z,1.95
2023-03-16T11:09:35.217Z,1.85
2023-03-16T11:12:15.578Z,1.83
2023-03-16T11:14:46.836Z,2.08
2023-03-16T11:17:20.346Z,2.10
2023-03-16T11:19:54.506Z,1.60
2023-03-16T11:22:27.566Z,1.83
2023-03-16T11:25:02.176Z,2.58
2023-03-16T11:27:36.920Z,2.40
2023-03-16T11:30:15.370Z,1.58
2023-03-16T11:32:50.613Z,1.70
2023-03-16T11:35:22.035Z,2.08
2023-03-16T11:38:05.949Z,1.92
2023-03-16T11:40:45.473Z,1.30
2023-03-16T11:43:32.997Z,1.50
2023-03-16T11:46:14.037Z,2.25
2023-03-16T11:48:50.270Z,1.73
2023-03-16T11:51:42.345Z,1.95
2023-03-16T11:54:41.514Z,1.65
2023-03-16T11:57:29.227Z,1.30
2023-03-16T12:00:12.981Z,1.65
2023-03-16T12:05:43.854Z,1.65
2023-03-16T12:08:42.306Z,1.65
2023-03-16T12:11:14.877Z,2.00
2023-03-16T12:14:01.708Z,1.60
2023-03-16T12:16:48.434Z,1.60
2023-03-16T12:19:24.994Z,2.58
2023-03-16T12:22:06.991Z,1.60
2023-03-16T12:24:42.766Z,1.75
2023-03-16T12:27:17.699Z,1.38
2023-03-16T12:29:59.469Z,1.35
2023-03-16T12:32:41.083Z,1.70
2023-03-16T12:35:22.402Z,1.55
2023-03-16T12:38:03.126Z,1.25
2023-03-16T12:40:40.737Z,1.30
2023-03-16T12:43:23.898Z,2.05
2023-03-16T12:46:00.393Z,1.70
2023-03-16T12:48:34.019Z,1.63
2023-03-16T12:51:05.695Z,1.23
2023-03-16T12:53:44.760Z,2.38
2023-03-16T12:56:16.434Z,1.70
2023-03-16T12:58:48.645Z,1.58
2023-03-16T13:01:20.041Z,2.25
2023-03-16T13:03:51.981Z,1.10
2023-03-16T13:06:24.937Z,1.55
2023-03-16T13:08:59.854Z,1.23
2023-03-16T13:11:29.491Z,1.67
2023-03-16T13:14:11.239Z,2.00
2023-03-16T13:16:41.512Z,1.25
2023-03-16T13:19:26.594Z,1.25
2023-03-16T13:22:06.178Z,1.33
2023-03-16T13:24:41.201Z,1.20
2023-03-16T13:27:23.277Z,1.15
2023-03-16T13:29:58.003Z,1.63
2023-03-16T13:32:31.382Z,2.47
2023-03-16T13:37:31.746Z,1.20
2023-03-16T13:40:04.847Z,1.17
2023-03-16T13:42:34.361Z,1.13
2023-03-16T13:45:14.677Z,1.38
2023-03-16T13:47:45.516Z,1.73
2023-03-16T13:50:16.124Z,1.30
2023-03-16T13:52:55.302Z,1.17
2023-03-16T13:55:30.719Z,1.20
2023-03-16T13:57:59.962Z,1.30
2023-03-16T14:00:37.738Z,2.30
2023-03-16T14:03:16.237Z,1.25
2023-03-16T14:05:46.290Z,1.80
2023-03-16T14:08:21.895Z,1.35
2023-03-16T14:10:52.045Z,0.90
2023-03-16T14:13:38.313Z,2.08
2023-03-16T14:16:14.845Z,1.25
2023-03-16T14:18:46.010Z,1.33
2023-03-16T14:21:17.852Z,1.10
2023-03-16T14:23:52.973Z,0.95
2023-03-16T14:26:25.207Z,1.10
2023-03-16T14:29:02.844Z,0.80
2023-03-16T14:31:37.033Z,1.27
2023-03-16T14:34:08.854Z,2.30
2023-03-16T14:36:40.566Z,1.55
2023-03-16T14:39:18.282Z,1.40
2023-03-16T14:41:50.611Z,1.70
2023-03-16T14:44:22.930Z,1.23
2023-03-16T14:46:54.293Z,1.30
2023-03-16T14:49:29.046Z,1.23
2023-03-16T14:52:02.166Z,1.42
2023-03-16T14:54:32.376Z,1.15
2023-03-16T14:57:03.862Z,1.08
2023-03-16T14:59:33.252Z,1.35
2023-03-16T15:02:04.281Z,1.50
2023-03-16T15:04:38.490Z,0.95
2023-03-16T15:07:22.173Z,1.88
2023-03-16T15:09:53.821Z,1.63
2023-03-16T15:12:25.171Z,1.17
2023-03-16T15:15:11.825Z,0.98
2023-03-16T15:17:40.646Z,1.25
2023-03-16T15:20:11.920Z,1.20
2023-03-16T15:22:41.835Z,1.27
2023-03-16T15:25:24.428Z,0.95
2023-03-16T15:27:54.339Z,1.35
2023-03-16T15:30:25.756Z,1.17
2023-03-16T15:32:54.697Z,1.45
2023-03-16T15:35:23.810Z,0.85
2023-03-16T15:37:55.224Z,1.10
2023-03-16T15:40:27.421Z,1.80
2023-03-16T15:42:56.619Z,1.13
2023-03-16T15:45:25.713Z,0.93
2023-03-16T15:47:55.309Z,1.00
2023-03-16T15:50:25.927Z,1.27
2023-03-16T15:52:59.215Z,0.90
2023-03-16T15:58:03.711Z,1.15
2023-03-16T16:00:35.213Z,0.73
2023-03-16T16:03:07.562Z,1.42
2023-03-16T16:05:36.612Z,1.20
2023-03-16T16:08:05.796Z,1.83
2023-03-16T16:10:36.308Z,0.75
2023-03-16T16:13:05.674Z,1.00
2023-03-16T16:15:37.703Z,1.30
2023-03-16T16:18:26.563Z,1.10
2023-03-16T16:20:55.504Z,1.20
2023-03-16T16:23:25.132Z,1.20
2023-03-16T16:25:58.615Z,1.00
2023-03-16T16:28:31.023Z,1.20
2023-03-16T16:31:03.151Z,1.25
2023-03-16T16:33:34.018Z,1.25
2023-03-16T16:36:08.770Z,1.05
2023-03-16T16:38:37.557Z,1.48
2023-03-16T16:41:09.656Z,1.42
2023-03-16T16:43:41.276Z,1.00
2023-03-16T16:46:15.576Z,0.88
2023-03-16T16:48:47.074Z,1.98
2023-03-16T16:51:19.577Z,0.90
2023-03-16T16:53:49.114Z,1.05
2023-03-16T16:56:25.976Z,1.38
2023-03-16T16:58:55.822Z,0.90
2023-03-16T17:01:29.110Z,1.05
2023-03-16T17:03:58.002Z,1.27
2023-03-16T17:06:27.984Z,1.20
2023-03-16T17:08:56.982Z,1.00
2023-03-16T17:11:30.117Z,1.27
2023-03-16T17:16:31.494Z,1.38
2023-03-16T17:19:02.550Z,1.38
2023-03-16T17:21:32.567Z,1.20
2023-03-16T17:24:01.655Z,1.33
2023-03-16T17:26:34.524Z,1.85
2023-03-16T17:29:07.309Z,1.40
2023-03-16T17:31:40.287Z,1.23
2023-03-16T17:34:18.418Z,1.25
2023-03-16T17:36:47.992Z,1.40
2023-03-16T17:39:21.142Z,1.20
2023-03-16T17:41:55.785Z,1.70
2023-03-16T17:44:25.648Z,1.50
2023-03-16T17:46:54.522Z,9.80
2023-03-16T17:49:28.484Z,7.00
2023-03-16T17:51:57.718Z,1.98
2023-03-16T17:54:26.410Z,1.30
2023-03-16T17:56:57.118Z,1.30
2023-03-16T17:59:26.046Z,1.73
2023-03-16T18:01:57.302Z,2.25
2023-03-16T18:04:27.827Z,1.25
2023-03-16T18:06:56.991Z,1.52
2023-03-16T18:09:25.909Z,1.40
2023-03-16T18:11:59.065Z,1.63
2023-03-16T18:14:36.114Z,1.45
2023-03-16T18:17:16.898Z,1.38
2023-03-16T18:19:47.012Z,2.17
2023-03-16T18:22:20.300Z,2.55
2023-03-16T18:27:20.172Z,1.25
2023-03-16T18:29:49.240Z,1.60
2023-03-16T18:32:24.164Z,2.28
2023-03-16T18:34:53.779Z,1.65
2023-03-16T18:37:25.959Z,1.70
2023-03-16T18:39:55.347Z,1.60
2023-03-16T18:42:27.744Z,3.30
2023-03-16T18:44:57.220Z,2.15
2023-03-16T18:47:31.465Z,2.08
2023-03-16T18:50:01.284Z,1.65
2023-03-16T18:52:33.154Z,3.35
2023-03-16T18:55:02.564Z,1.55
2023-03-16T18:57:33.373Z,1.95
2023-03-16T19:00:02.062Z,1.63
2023-03-16T19:02:37.320Z,1.98
2023-03-16T19:05:09.860Z,1.95
2023-03-16T19:07:42.327Z,1.87
2023-03-16T19:10:22.166Z,2.17
2023-03-16T19:12:52.839Z,1.88
2023-03-16T19:15:24.595Z,2.25
2023-03-16T19:17:54.402Z,2.15
2023-03-16T19:20:24.946Z,1.83
2023-03-16T19:22:59.965Z,2.92
2023-03-16T19:25:33.030Z,1.90
2023-03-16T19:28:04.264Z,2.42
2023-03-16T19:30:34.760Z,2.10
2023-03-16T19:33:03.719Z,2.13
2023-03-16T19:35:50.291Z,3.58
2023-03-16T19:38:20.092Z,2.28
2023-03-16T19:40:55.217Z,2.30
2023-03-16T19:43:26.468Z,2.63
2023-03-16T19:45:56.633Z,2.45
2023-03-16T19:48:32.867Z,2.63
2023-03-16T19:51:01.942Z,3.30
2023-03-16T19:53:30.772Z,2.50
2023-03-16T19:55:59.504Z,2.65
2023-03-16T19:58:32.684Z,3.38
2023-03-16T20:01:02.260Z,2.40
2023-03-16T20:03:34.511Z,2.38
2023-03-16T20:06:04.003Z,2.13
2023-03-16T20:08:33.214Z,2.65
2023-03-16T20:11:07.755Z,2.15
2023-03-16T20:13:37.906Z,2.25
2023-03-16T20:16:08.399Z,2.42
2023-03-16T20:18:37.458Z,1.85
2023-03-16T20:21:07.305Z,2.30
2023-03-16T20:23:39.265Z,2.50
2023-03-16T20:26:16.969Z,2.20
2023-03-16T20:28:48.412Z,2.00
2023-03-16T20:31:22.856Z,2.00
2023-03-16T20:33:53.915Z,2.30
2023-03-16T20:36:23.967Z,1.85
2023-03-16T20:38:52.883Z,1.83
2023-03-16T20:41:26.582Z,2.53
2023-03-16T20:43:57.935Z,2.38
2023-03-16T20:46:29.501Z,3.53
2023-03-16T20:49:00.641Z,2.40
2023-03-16T20:51:29.942Z,2.20
2023-03-16T20:53:59.477Z,2.30
2023-03-16T20:56:28.710Z,2.38
2023-03-16T20:58:59.085Z,2.00
2023-03-16T21:01:28.069Z,2.30
2023-03-16T21:03:57.778Z,2.72
2023-03-16T21:06:30.150Z,2.67
2023-03-16T21:09:03.218Z,2.92
2023-03-16T21:11:36.957Z,17.73
2023-03-16T21:14:15.579Z,4.65
2023-03-16T21:16:44.769Z,2.83
2023-03-16T21:19:15.599Z,3.40
2023-03-16T21:21:44.389Z,3.35
2023-03-16T21:24:13.281Z,3.22
2023-03-16T21:26:43.928Z,3.40
2023-03-16T21:29:18.183Z,4.40
2023-03-16T21:31:48.491Z,3.83
2023-03-16T21:34:26.284Z,3.25
2023-03-16T21:36:55.081Z,3.33
2023-03-16T21:39:25.323Z,3.47
2023-03-16T21:41:54.363Z,3.22
2023-03-16T21:44:24.621Z,2.85
2023-03-16T21:46:55.907Z,2.83
2023-03-16T21:49:25.023Z,3.20
2023-03-16T21:51:53.882Z,3.00
2023-03-16T21:54:22.804Z,3.53
2023-03-16T21:56:53.744Z,3.03
2023-03-16T21:59:26.519Z,4.15
2023-03-16T22:02:01.867Z,2.88
2023-03-16T22:04:34.450Z,3.85
2023-03-16T22:07:03.953Z,3.63
2023-03-16T22:09:35.276Z,4.20
2023-03-16T22:12:04.389Z,4.80
2023-03-16T22:14:36.969Z,3.95
2023-03-16T22:17:06.559Z,4.22
2023-03-16T22:19:35.706Z,3.53
2023-03-16T22:22:04.705Z,4.35
2023-03-16T22:24:35.845Z,4.00
2023-03-16T22:27:05.589Z,3.47
2023-03-16T22:29:34.595Z,3.25
2023-03-16T22:32:08.632Z,3.38
2023-03-16T22:34:43.850Z,3.60
2023-03-16T22:37:17.095Z,4.50
2023-03-16T22:39:46.316Z,3.47
2023-03-16T22:42:27.808Z,4.03
2023-03-16T22:44:57.235Z,3.30
2023-03-16T22:47:32.473Z,3.58
2023-03-16T22:50:02.018Z,3.58
2023-03-16T22:52:34.699Z,4.20
2023-03-16T22:55:06.980Z,3.60
2023-03-16T22:57:36.027Z,3.72
2023-03-16T23:00:08.252Z,3.35
2023-03-16T23:02:41.554Z,3.80
2023-03-16T23:05:22.298Z,3.40
2023-03-16T23:07:52.023Z,3.33
2023-03-16T23:10:23.876Z,3.70
2023-03-16T23:12:54.118Z,3.97
2023-03-16T23:15:25.078Z,3.17
2023-03-16T23:17:55.878Z,3.33
2023-03-16T23:20:28.486Z,3.33
2023-03-16T23:22:57.716Z,2.85
2023-03-16T23:25:26.570Z,3.63
2023-03-16T23:27:55.694Z,3.22
2023-03-16T23:30:26.961Z,3.15
2023-03-16T23:35:29.572Z,3.13
2023-03-16T23:37:59.192Z,2.70
2023-03-16T23:40:30.335Z,3.00
2023-03-16T23:43:02.134Z,3.55
2023-03-16T23:45:35.821Z,3.50
2023-03-16T23:48:14.218Z,3.33
2023-03-16T23:50:44.722Z,3.42
2023-03-16T23:53:16.162Z,4.18
2023-03-16T23:55:46.397Z,3.05
2023-03-16T23:58:16.845Z,4.00
